createdAt,value
2022-10-04T00:08:26.375Z,13.00
2022-10-04T00:11:23.956Z,10.13
2022-10-04T00:25:28.601Z,100.60
2022-10-04T00:31:38.841Z,22.30
2022-10-04T00:34:39.222Z,8.73
2022-10-04T00:40:26.019Z,4.72
2022-10-04T00:45:47.234Z,4.82
2022-10-04T00:54:23.202Z,37.95
2022-10-04T00:59:41.366Z,14.27
2022-10-04T01:02:16.492Z,27.17
2022-10-04T01:04:53.073Z,60.75
2022-10-04T01:10:14.068Z,4.50
2022-10-04T01:13:18.181Z,13.65
2022-10-04T01:24:23.685Z,82.55
2022-10-04T01:26:50.959Z,48.88
2022-10-04T01:32:09.628Z,75.82
2022-10-04T01:34:41.027Z,50.20
2022-10-04T01:39:54.732Z,176.73
2022-10-04T01:48:01.665Z,117.30
2022-10-04T01:53:26.868Z,18.95
2022-10-04T01:59:33.834Z,39.40
2022-10-04T02:16:40.361Z,51.22
2022-10-04T02:19:09.546Z,104.50
2022-10-04T02:21:39.224Z,8.40
2022-10-04T02:24:14.483Z,104.35
2022-10-04T02:29:24.496Z,67.38
2022-10-04T02:37:40.826Z,135.25
2022-10-04T02:40:34.260Z,94.88
2022-10-04T02:43:11.446Z,9.20
2022-10-04T02:51:28.716Z,17.60
2022-10-04T03:03:51.666Z,36.40
2022-10-04T03:51:50.586Z,25.85
2022-10-04T04:10:51.533Z,87.68
2022-10-04T04:13:30.031Z,17.48
2022-10-04T04:16:12.115Z,37.13
2022-10-04T04:18:43.727Z,63.22
2022-10-04T04:21:19.177Z,6.40
2022-10-04T04:23:52.786Z,8.48
2022-10-04T04:26:27.819Z,67.80
2022-10-04T04:28:58.977Z,315.25
2022-10-04T04:31:34.978Z,296.08
2022-10-04T04:34:04.272Z,263.55
2022-10-04T04:36:38.684Z,231.73
2022-10-04T04:39:37.810Z,91.10
2022-10-04T04:42:23.873Z,53.83
2022-10-04T04:44:53.524Z,109.72
2022-10-04T04:50:18.222Z,74.38
2022-10-04T04:52:52.056Z,78.50
2022-10-04T04:55:22.671Z,145.85
2022-10-04T05:00:38.794Z,171.15
2022-10-04T05:03:13.546Z,30.83
2022-10-04T05:05:48.018Z,75.88
2022-10-04T05:08:18.915Z,64.70
2022-10-04T05:10:55.566Z,81.07
2022-10-04T05:13:26.216Z,105.80
2022-10-04T05:15:56.057Z,160.02
2022-10-04T05:18:30.442Z,136.20
2022-10-04T05:21:03.566Z,43.28
2022-10-04T05:23:30.398Z,121.28
2022-10-04T05:26:04.333Z,107.78
2022-10-04T05:28:32.841Z,111.63
2022-10-04T05:31:19.245Z,90.47
2022-10-04T05:33:48.303Z,6.28
2022-10-04T05:36:39.067Z,14.88
2022-10-04T05:39:13.121Z,9.10
2022-10-04T05:41:52.645Z,6.70
2022-10-04T05:44:32.101Z,12.98
2022-10-04T05:47:01.742Z,8.45
2022-10-04T05:49:33.583Z,15.07
2022-10-04T05:52:03.635Z,10.38
2022-10-04T05:54:35.834Z,26.95
2022-10-04T05:57:37.586Z,85.20
2022-10-04T06:00:13.874Z,5.75
2022-10-04T06:03:07.608Z,30.67
2022-10-04T06:08:49.270Z,27.50
2022-10-04T06:11:32.087Z,48.10
2022-10-04T06:14:34.952Z,41.72
2022-10-04T06:17:24.428Z,5.70
2022-10-04T06:20:16.562Z,17.05
2022-10-04T06:22:45.675Z,35.17
2022-10-04T06:25:20.044Z,25.83
2022-10-04T06:27:54.154Z,5.55
2022-10-04T06:30:30.323Z,46.15
2022-10-04T06:33:32.700Z,32.88
2022-10-04T06:36:19.771Z,4.45
2022-10-04T06:39:06.005Z,5.97
2022-10-04T06:41:49.365Z,8.90
2022-10-04T06:44:44.282Z,4.25
2022-10-04T06:50:45.568Z,10.65
2022-10-04T06:59:43.558Z,4.70
2022-10-04T07:02:16.202Z,6.85
2022-10-04T07:05:07.539Z,5.45
2022-10-04T07:14:13.998Z,6.18
2022-10-04T07:16:48.331Z,5.05
2022-10-04T07:19:34.052Z,8.75
2022-10-04T07:22:20.676Z,7.07
2022-10-04T07:25:08.351Z,8.20
2022-10-04T07:54:04.177Z,5.82
2022-10-04T10:34:00.626Z,3.45
2022-10-04T12:16:46.492Z,3.97
